sensor_id;sensor_type;location;lat;lon;timestamp;P1;durP1;ratioP1;P2;durP2;ratioP2
20888;SDS011;10604;51.976;7.594;2022-09-11T00:00:36;21.50;;;19.27;;
20888;SDS011;10604;51.976;7.594;2022-09-11T00:03:02;21.53;;;19.53;;
20888;SDS011;10604;51.976;7.594;2022-09-11T00:05:28;20.77;;;18.77;;
20888;SDS011;10604;51.976;7.594;2022-09-11T00:07:55;21.13;;;19.23;;
20888;SDS011;10604;51.976;7.594;2022-09-11T00:10:21;19.57;;;17.87;;
20888;SDS011;10604;51.976;7.594;2022-09-11T00:12:46;20.35;;;18.63;;
20888;SDS011;10604;51.976;7.594;2022-09-11T00:15:13;21.60;;;19.70;;
20888;SDS011;10604;51.976;7.594;2022-09-11T00:17:39;22.77;;;20.57;;
20888;SDS011;10604;51.976;7.594;2022-09-11T00:20:04;21.00;;;19.10;;
20888;SDS011;10604;51.976;7.594;2022-09-11T00:22:30;24.73;;;22.25;;
20888;SDS011;10604;51.976;7.594;2022-09-11T00:24:55;24.25;;;21.80;;
20888;SDS011;10604;51.976;7.594;2022-09-11T00:27:22;23.73;;;21.47;;
20888;SDS011;10604;51.976;7.594;2022-09-11T00:29:48;26.05;;;23.45;;
20888;SDS011;10604;51.976;7.594;2022-09-11T00:32:13;24.17;;;21.80;;
20888;SDS011;10604;51.976;7.594;2022-09-11T00:34:39;25.65;;;23.05;;
20888;SDS011;10604;51.976;7.594;2022-09-11T00:37:05;25.35;;;22.80;;
20888;SDS011;10604;51.976;7.594;2022-09-11T00:39:30;25.57;;;23.00;;
20888;SDS011;10604;51.976;7.594;2022-09-11T00:41:56;25.38;;;22.08;;
20888;SDS011;10604;51.976;7.594;2022-09-11T00:46:49;26.08;;;23.55;;
20888;SDS011;10604;51.976;7.594;2022-09-11T00:52:33;24.60;;;22.30;;
20888;SDS011;10604;51.976;7.594;2022-09-11T00:54:43;23.27;;;20.92;;
20888;SDS011;10604;51.976;7.594;2022-09-11T00:57:13;25.02;;;22.55;;
20888;SDS011;10604;51.976;7.594;2022-09-11T00:59:42;26.13;;;23.35;;
20888;SDS011;10604;51.976;7.594;2022-09-11T01:02:11;25.98;;;23.38;;
20888;SDS011;10604;51.976;7.594;2022-09-11T01:04:41;26.63;;;24.03;;
20888;SDS011;10604;51.976;7.594;2022-09-11T01:07:06;26.05;;;23.40;;
20888;SDS011;10604;51.976;7.594;2022-09-11T01:09:34;28.58;;;25.50;;
20888;SDS011;10604;51.976;7.594;2022-09-11T01:14:29;24.80;;;22.20;;
20888;SDS011;10604;51.976;7.594;2022-09-11T01:17:08;25.38;;;22.88;;
20888;SDS011;10604;51.976;7.594;2022-09-11T01:22:56;24.85;;;22.27;;
20888;SDS011;10604;51.976;7.594;2022-09-11T01:28:07;24.23;;;21.83;;
20888;SDS011;10604;51.976;7.594;2022-09-11T01:30:42;25.65;;;23.05;;
20888;SDS011;10604;51.976;7.594;2022-09-11T01:33:22;25.40;;;22.77;;
20888;SDS011;10604;51.976;7.594;2022-09-11T01:35:55;24.77;;;22.23;;
20888;SDS011;10604;51.976;7.594;2022-09-11T01:43:57;26.15;;;23.58;;
20888;SDS011;10604;51.976;7.594;2022-09-11T01:46:31;28.83;;;25.73;;
20888;SDS011;10604;51.976;7.594;2022-09-11T01:49:03;30.23;;;27.08;;
20888;SDS011;10604;51.976;7.594;2022-09-11T01:51:31;30.15;;;25.50;;
20888;SDS011;10604;51.976;7.594;2022-09-11T01:53:59;29.37;;;26.40;;
20888;SDS011;10604;51.976;7.594;2022-09-11T01:56:28;27.17;;;24.27;;
20888;SDS011;10604;51.976;7.594;2022-09-11T01:59:00;27.58;;;24.35;;
20888;SDS011;10604;51.976;7.594;2022-09-11T02:01:30;29.33;;;25.73;;
20888;SDS011;10604;51.976;7.594;2022-09-11T02:04:04;28.27;;;25.23;;
20888;SDS011;10604;51.976;7.594;2022-09-11T02:09:22;26.33;;;23.45;;
20888;SDS011;10604;51.976;7.594;2022-09-11T02:11:52;25.05;;;22.48;;
20888;SDS011;10604;51.976;7.594;2022-09-11T02:14:26;27.13;;;24.02;;
20888;SDS011;10604;51.976;7.594;2022-09-11T02:17:04;26.52;;;23.10;;
20888;SDS011;10604;51.976;7.594;2022-09-11T02:19:39;25.60;;;22.95;;
20888;SDS011;10604;51.976;7.594;2022-09-11T02:22:06;25.63;;;22.92;;
20888;SDS011;10604;51.976;7.594;2022-09-11T02:24:31;26.17;;;23.42;;
20888;SDS011;10604;51.976;7.594;2022-09-11T02:26:59;25.17;;;22.63;;
20888;SDS011;10604;51.976;7.594;2022-09-11T02:29:27;25.83;;;22.63;;
20888;SDS011;10604;51.976;7.594;2022-09-11T02:31:53;26.30;;;23.23;;
20888;SDS011;10604;51.976;7.594;2022-09-11T02:34:26;25.27;;;22.77;;
20888;SDS011;10604;51.976;7.594;2022-09-11T02:58:59;29.50;;;26.40;;
20888;SDS011;10604;51.976;7.594;2022-09-11T03:01:27;27.20;;;24.27;;
20888;SDS011;10604;51.976;7.594;2022-09-11T03:03:53;31.70;;;27.67;;
20888;SDS011;10604;51.976;7.594;2022-09-11T03:06:22;29.00;;;25.90;;
20888;SDS011;10604;51.976;7.594;2022-09-11T03:08:49;33.97;;;28.35;;
20888;SDS011;10604;51.976;7.594;2022-09-11T03:11:15;31.60;;;27.13;;
20888;SDS011;10604;51.976;7.594;2022-09-11T03:13:41;36.50;;;29.42;;
20888;SDS011;10604;51.976;7.594;2022-09-11T03:16:08;37.65;;;31.13;;
20888;SDS011;10604;51.976;7.594;2022-09-11T03:18:34;35.60;;;30.80;;
20888;SDS011;10604;51.976;7.594;2022-09-11T03:21:00;42.53;;;33.20;;
20888;SDS011;10604;51.976;7.594;2022-09-11T03:23:27;43.08;;;34.30;;
20888;SDS011;10604;51.976;7.594;2022-09-11T03:25:52;43.97;;;33.83;;
20888;SDS011;10604;51.976;7.594;2022-09-11T03:28:19;48.60;;;36.33;;
20888;SDS011;10604;51.976;7.594;2022-09-11T03:30:44;46.55;;;35.88;;
20888;SDS011;10604;51.976;7.594;2022-09-11T03:33:10;45.70;;;35.40;;
20888;SDS011;10604;51.976;7.594;2022-09-11T03:35:35;47.10;;;37.00;;
20888;SDS011;10604;51.976;7.594;2022-09-11T03:38:00;57.17;;;38.63;;
20888;SDS011;10604;51.976;7.594;2022-09-11T03:40:26;53.73;;;38.70;;
20888;SDS011;10604;51.976;7.594;2022-09-11T03:42:51;46.17;;;36.63;;
20888;SDS011;10604;51.976;7.594;2022-09-11T03:45:17;55.53;;;40.13;;
20888;SDS011;10604;51.976;7.594;2022-09-11T03:47:43;53.22;;;38.65;;
20888;SDS011;10604;51.976;7.594;2022-09-11T03:50:09;48.50;;;37.70;;
20888;SDS011;10604;51.976;7.594;2022-09-11T03:52:35;54.83;;;39.28;;
20888;SDS011;10604;51.976;7.594;2022-09-11T03:55:01;47.90;;;36.80;;
20888;SDS011;10604;51.976;7.594;2022-09-11T03:57:27;48.35;;;37.63;;
20888;SDS011;10604;51.976;7.594;2022-09-11T03:59:53;54.17;;;38.37;;
20888;SDS011;10604;51.976;7.594;2022-09-11T04:02:20;44.30;;;34.70;;
20888;SDS011;10604;51.976;7.594;2022-09-11T04:04:47;44.50;;;34.20;;
20888;SDS011;10604;51.976;7.594;2022-09-11T04:07:12;41.80;;;34.97;;
20888;SDS011;10604;51.976;7.594;2022-09-11T04:09:37;44.67;;;33.20;;
20888;SDS011;10604;51.976;7.594;2022-09-11T04:12:03;44.23;;;34.13;;
20888;SDS011;10604;51.976;7.594;2022-09-11T04:14:29;49.83;;;35.50;;
20888;SDS011;10604;51.976;7.594;2022-09-11T04:16:54;46.37;;;34.27;;
20888;SDS011;10604;51.976;7.594;2022-09-11T04:19:20;48.27;;;35.70;;
20888;SDS011;10604;51.976;7.594;2022-09-11T04:21:46;44.05;;;34.45;;
20888;SDS011;10604;51.976;7.594;2022-09-11T04:24:12;49.97;;;36.47;;
20888;SDS011;10604;51.976;7.594;2022-09-11T04:26:37;47.53;;;36.40;;
20888;SDS011;10604;51.976;7.594;2022-09-11T04:29:03;49.13;;;36.15;;
20888;SDS011;10604;51.976;7.594;2022-09-11T04:31:28;49.67;;;37.37;;
20888;SDS011;10604;51.976;7.594;2022-09-11T04:33:53;50.37;;;36.53;;
20888;SDS011;10604;51.976;7.594;2022-09-11T04:36:20;51.30;;;36.70;;
20888;SDS011;10604;51.976;7.594;2022-09-11T04:38:46;49.47;;;36.97;;
20888;SDS011;10604;51.976;7.594;2022-09-11T04:41:13;51.15;;;37.85;;
20888;SDS011;10604;51.976;7.594;2022-09-11T04:43:39;49.95;;;37.63;;
20888;SDS011;10604;51.976;7.594;2022-09-11T04:46:10;48.05;;;37.58;;
20888;SDS011;10604;51.976;7.594;2022-09-11T04:48:46;48.00;;;37.28;;
20888;SDS011;10604;51.976;7.594;2022-09-11T04:51:20;47.00;;;36.13;;
20888;SDS011;10604;51.976;7.594;2022-09-11T04:53:48;48.23;;;36.90;;
20888;SDS011;10604;51.976;7.594;2022-09-11T04:56:19;51.25;;;39.05;;
20888;SDS011;10604;51.976;7.594;2022-09-11T04:58:45;46.33;;;36.75;;
20888;SDS011;10604;51.976;7.594;2022-09-11T05:01:14;50.08;;;37.28;;
20888;SDS011;10604;51.976;7.594;2022-09-11T05:03:41;44.72;;;35.67;;
20888;SDS011;10604;51.976;7.594;2022-09-11T05:06:08;44.60;;;35.15;;
20888;SDS011;10604;51.976;7.594;2022-09-11T05:08:35;43.33;;;34.40;;
20888;SDS011;10604;51.976;7.594;2022-09-11T05:11:01;40.77;;;32.17;;
20888;SDS011;10604;51.976;7.594;2022-09-11T05:13:30;39.97;;;31.95;;
20888;SDS011;10604;51.976;7.594;2022-09-11T05:16:08;40.20;;;32.43;;
20888;SDS011;10604;51.976;7.594;2022-09-11T05:18:35;35.63;;;31.73;;
20888;SDS011;10604;51.976;7.594;2022-09-11T05:21:03;40.55;;;33.13;;
20888;SDS011;10604;51.976;7.594;2022-09-11T05:23:30;38.67;;;31.42;;
20888;SDS011;10604;51.976;7.594;2022-09-11T05:25:57;49.78;;;32.70;;
20888;SDS011;10604;51.976;7.594;2022-09-11T05:28:23;45.50;;;32.80;;
20888;SDS011;10604;51.976;7.594;2022-09-11T05:30:50;36.77;;;31.13;;
20888;SDS011;10604;51.976;7.594;2022-09-11T05:33:16;42.35;;;33.28;;
20888;SDS011;10604;51.976;7.594;2022-09-11T05:35:42;39.33;;;32.30;;
20888;SDS011;10604;51.976;7.594;2022-09-11T05:38:08;50.80;;;33.20;;
20888;SDS011;10604;51.976;7.594;2022-09-11T05:40:35;40.15;;;31.63;;
20888;SDS011;10604;51.976;7.594;2022-09-11T05:43:00;38.83;;;30.43;;
20888;SDS011;10604;51.976;7.594;2022-09-11T05:45:26;39.47;;;29.77;;
20888;SDS011;10604;51.976;7.594;2022-09-11T05:47:51;39.10;;;30.53;;
20888;SDS011;10604;51.976;7.594;2022-09-11T05:50:18;46.25;;;30.05;;
20888;SDS011;10604;51.976;7.594;2022-09-11T05:52:45;33.60;;;28.98;;
20888;SDS011;10604;51.976;7.594;2022-09-11T05:55:11;37.70;;;30.47;;
20888;SDS011;10604;51.976;7.594;2022-09-11T05:57:36;36.80;;;31.10;;
20888;SDS011;10604;51.976;7.594;2022-09-11T06:00:02;39.13;;;30.27;;
20888;SDS011;10604;51.976;7.594;2022-09-11T06:02:28;35.08;;;29.55;;
20888;SDS011;10604;51.976;7.594;2022-09-11T06:04:55;37.33;;;30.75;;
20888;SDS011;10604;51.976;7.594;2022-09-11T06:07:20;35.70;;;29.17;;
20888;SDS011;10604;51.976;7.594;2022-09-11T06:09:46;39.22;;;30.70;;
20888;SDS011;10604;51.976;7.594;2022-09-11T06:12:11;34.33;;;28.83;;
20888;SDS011;10604;51.976;7.594;2022-09-11T06:14:37;38.22;;;30.10;;
20888;SDS011;10604;51.976;7.594;2022-09-11T06:17:02;37.97;;;30.03;;
20888;SDS011;10604;51.976;7.594;2022-09-11T06:19:30;34.03;;;29.15;;
20888;SDS011;10604;51.976;7.594;2022-09-11T06:21:55;33.43;;;29.30;;
20888;SDS011;10604;51.976;7.594;2022-09-11T06:24:21;36.53;;;29.17;;
20888;SDS011;10604;51.976;7.594;2022-09-11T06:26:46;36.20;;;29.77;;
20888;SDS011;10604;51.976;7.594;2022-09-11T06:29:12;34.57;;;29.60;;
20888;SDS011;10604;51.976;7.594;2022-09-11T06:31:38;33.75;;;28.15;;
20888;SDS011;10604;51.976;7.594;2022-09-11T06:34:05;30.75;;;27.00;;
20888;SDS011;10604;51.976;7.594;2022-09-11T06:36:30;33.03;;;28.17;;
20888;SDS011;10604;51.976;7.594;2022-09-11T06:38:56;32.20;;;27.57;;
20888;SDS011;10604;51.976;7.594;2022-09-11T06:41:22;32.55;;;27.45;;
20888;SDS011;10604;51.976;7.594;2022-09-11T06:43:48;33.38;;;26.55;;
20888;SDS011;10604;51.976;7.594;2022-09-11T06:46:15;30.52;;;25.40;;
20888;SDS011;10604;51.976;7.594;2022-09-11T06:48:43;29.40;;;25.48;;
20888;SDS011;10604;51.976;7.594;2022-09-11T06:51:11;30.25;;;26.05;;
20888;SDS011;10604;51.976;7.594;2022-09-11T06:53:38;33.30;;;27.20;;
20888;SDS011;10604;51.976;7.594;2022-09-11T06:56:05;31.77;;;26.52;;
20888;SDS011;10604;51.976;7.594;2022-09-11T06:58:31;33.38;;;25.88;;
20888;SDS011;10604;51.976;7.594;2022-09-11T07:01:03;32.33;;;26.10;;
20888;SDS011;10604;51.976;7.594;2022-09-11T07:03:30;30.50;;;24.13;;
20888;SDS011;10604;51.976;7.594;2022-09-11T07:05:56;29.60;;;22.92;;
20888;SDS011;10604;51.976;7.594;2022-09-11T07:08:22;33.22;;;25.27;;
20888;SDS011;10604;51.976;7.594;2022-09-11T07:10:49;31.52;;;23.73;;
20888;SDS011;10604;51.976;7.594;2022-09-11T07:13:15;30.77;;;24.10;;
20888;SDS011;10604;51.976;7.594;2022-09-11T07:15:40;29.40;;;23.50;;
20888;SDS011;10604;51.976;7.594;2022-09-11T07:18:06;32.13;;;24.23;;
20888;SDS011;10604;51.976;7.594;2022-09-11T07:20:32;31.97;;;25.20;;
20888;SDS011;10604;51.976;7.594;2022-09-11T07:22:57;33.72;;;25.60;;
20888;SDS011;10604;51.976;7.594;2022-09-11T07:25:23;32.30;;;24.90;;
20888;SDS011;10604;51.976;7.594;2022-09-11T07:27:49;33.80;;;25.92;;
20888;SDS011;10604;51.976;7.594;2022-09-11T07:30:16;31.60;;;24.83;;
20888;SDS011;10604;51.976;7.594;2022-09-11T07:32:42;34.08;;;26.10;;
20888;SDS011;10604;51.976;7.594;2022-09-11T07:35:08;33.97;;;25.60;;
20888;SDS011;10604;51.976;7.594;2022-09-11T07:37:33;31.65;;;25.95;;
20888;SDS011;10604;51.976;7.594;2022-09-11T07:39:58;33.33;;;26.07;;
20888;SDS011;10604;51.976;7.594;2022-09-11T07:42:24;33.83;;;26.03;;
20888;SDS011;10604;51.976;7.594;2022-09-11T07:44:49;36.53;;;27.87;;
20888;SDS011;10604;51.976;7.594;2022-09-11T07:47:14;33.75;;;26.02;;
20888;SDS011;10604;51.976;7.594;2022-09-11T07:49:40;35.23;;;26.13;;
20888;SDS011;10604;51.976;7.594;2022-09-11T07:52:05;36.30;;;27.80;;
20888;SDS011;10604;51.976;7.594;2022-09-11T07:54:31;37.35;;;26.83;;
20888;SDS011;10604;51.976;7.594;2022-09-11T07:56:56;38.37;;;28.33;;
20888;SDS011;10604;51.976;7.594;2022-09-11T07:59:22;38.93;;;28.20;;
20888;SDS011;10604;51.976;7.594;2022-09-11T08:01:48;36.97;;;27.80;;
20888;SDS011;10604;51.976;7.594;2022-09-11T08:04:17;36.87;;;28.43;;
20888;SDS011;10604;51.976;7.594;2022-09-11T08:06:43;37.78;;;28.65;;
20888;SDS011;10604;51.976;7.594;2022-09-11T08:09:10;39.20;;;27.90;;
20888;SDS011;10604;51.976;7.594;2022-09-11T08:11:39;40.35;;;29.25;;
20888;SDS011;10604;51.976;7.594;2022-09-11T08:14:07;37.10;;;25.80;;
20888;SDS011;10604;51.976;7.594;2022-09-11T08:16:35;39.33;;;28.37;;
20888;SDS011;10604;51.976;7.594;2022-09-11T08:19:01;38.38;;;27.38;;
20888;SDS011;10604;51.976;7.594;2022-09-11T08:21:27;36.35;;;26.70;;
20888;SDS011;10604;51.976;7.594;2022-09-11T08:23:53;36.63;;;27.05;;
20888;SDS011;10604;51.976;7.594;2022-09-11T08:26:19;32.07;;;23.73;;
20888;SDS011;10604;51.976;7.594;2022-09-11T08:28:50;29.80;;;22.65;;
20888;SDS011;10604;51.976;7.594;2022-09-11T08:31:17;26.70;;;21.20;;
20888;SDS011;10604;51.976;7.594;2022-09-11T08:33:45;26.58;;;20.85;;
20888;SDS011;10604;51.976;7.594;2022-09-11T08:36:10;27.27;;;20.77;;
20888;SDS011;10604;51.976;7.594;2022-09-11T08:38:40;25.42;;;21.10;;
20888;SDS011;10604;51.976;7.594;2022-09-11T08:41:29;24.00;;;19.85;;
20888;SDS011;10604;51.976;7.594;2022-09-11T08:44:02;23.35;;;19.15;;
20888;SDS011;10604;51.976;7.594;2022-09-11T08:46:36;23.05;;;19.70;;
20888;SDS011;10604;51.976;7.594;2022-09-11T08:51:38;19.38;;;16.38;;
20888;SDS011;10604;51.976;7.594;2022-09-11T08:54:04;21.35;;;17.17;;
20888;SDS011;10604;51.976;7.594;2022-09-11T08:56:30;21.42;;;16.38;;
20888;SDS011;10604;51.976;7.594;2022-09-11T09:08:03;15.07;;;13.38;;
20888;SDS011;10604;51.976;7.594;2022-09-11T09:10:52;15.05;;;12.50;;
20888;SDS011;10604;51.976;7.594;2022-09-11T09:13:34;15.73;;;12.68;;
20888;SDS011;10604;51.976;7.594;2022-09-11T09:16:15;15.68;;;12.95;;
20888;SDS011;10604;51.976;7.594;2022-09-11T09:18:56;13.38;;;11.77;;
20888;SDS011;10604;51.976;7.594;2022-09-11T09:21:24;14.57;;;11.63;;
20888;SDS011;10604;51.976;7.594;2022-09-11T09:23:53;12.97;;;11.43;;
20888;SDS011;10604;51.976;7.594;2022-09-11T09:26:20;12.87;;;11.17;;
20888;SDS011;10604;51.976;7.594;2022-09-11T09:28:54;12.90;;;11.52;;
20888;SDS011;10604;51.976;7.594;2022-09-11T09:31:25;13.18;;;11.73;;
20888;SDS011;10604;51.976;7.594;2022-09-11T09:33:55;12.48;;;10.55;;
20888;SDS011;10604;51.976;7.594;2022-09-11T09:39:28;13.05;;;11.10;;
20888;SDS011;10604;51.976;7.594;2022-09-11T09:47:15;12.13;;;10.53;;
20888;SDS011;10604;51.976;7.594;2022-09-11T09:49:41;14.20;;;11.15;;
20888;SDS011;10604;51.976;7.594;2022-09-11T09:52:15;12.73;;;10.88;;
20888;SDS011;10604;51.976;7.594;2022-09-11T09:54:45;13.82;;;10.70;;
20888;SDS011;10604;51.976;7.594;2022-09-11T09:57:34;13.52;;;10.43;;
20888;SDS011;10604;51.976;7.594;2022-09-11T10:00:04;11.68;;;10.20;;
20888;SDS011;10604;51.976;7.594;2022-09-11T10:08:06;12.40;;;10.48;;
20888;SDS011;10604;51.976;7.594;2022-09-11T10:10:53;11.85;;;10.15;;
20888;SDS011;10604;51.976;7.594;2022-09-11T10:13:24;11.30;;;9.93;;
20888;SDS011;10604;51.976;7.594;2022-09-11T10:15:53;12.05;;;10.65;;
20888;SDS011;10604;51.976;7.594;2022-09-11T10:18:29;11.75;;;10.00;;
20888;SDS011;10604;51.976;7.594;2022-09-11T10:29:16;12.05;;;10.05;;
20888;SDS011;10604;51.976;7.594;2022-09-11T10:31:49;11.18;;;9.10;;
20888;SDS011;10604;51.976;7.594;2022-09-11T10:34:16;11.68;;;10.20;;
20888;SDS011;10604;51.976;7.594;2022-09-11T10:36:53;11.85;;;10.02;;
20888;SDS011;10604;51.976;7.594;2022-09-11T10:39:39;11.63;;;10.13;;
20888;SDS011;10604;51.976;7.594;2022-09-11T10:42:12;10.88;;;9.30;;
20888;SDS011;10604;51.976;7.594;2022-09-11T10:44:42;11.25;;;9.63;;
20888;SDS011;10604;51.976;7.594;2022-09-11T10:49:40;11.20;;;10.00;;
20888;SDS011;10604;51.976;7.594;2022-09-11T10:57:48;10.57;;;9.38;;
20888;SDS011;10604;51.976;7.594;2022-09-11T11:02:54;11.00;;;9.82;;
20888;SDS011;10604;51.976;7.594;2022-09-11T11:08:06;11.23;;;9.85;;
20888;SDS011;10604;51.976;7.594;2022-09-11T11:11:00;10.77;;;9.27;;
20888;SDS011;10604;51.976;7.594;2022-09-11T11:22:12;12.77;;;10.80;;
20888;SDS011;10604;51.976;7.594;2022-09-11T11:30:20;12.48;;;11.05;;
20888;SDS011;10604;51.976;7.594;2022-09-11T11:36:06;13.48;;;11.35;;
20888;SDS011;10604;51.976;7.594;2022-09-11T11:41:23;12.00;;;10.10;;
20888;SDS011;10604;51.976;7.594;2022-09-11T11:43:54;12.40;;;10.43;;
20888;SDS011;10604;51.976;7.594;2022-09-11T11:46:37;11.35;;;9.90;;
20888;SDS011;10604;51.976;7.594;2022-09-11T11:51:45;11.07;;;9.75;;
20888;SDS011;10604;51.976;7.594;2022-09-11T11:54:18;9.88;;;8.77;;
20888;SDS011;10604;51.976;7.594;2022-09-11T11:56:49;10.38;;;8.73;;
20888;SDS011;10604;51.976;7.594;2022-09-11T12:07:32;10.65;;;8.52;;
20888;SDS011;10604;51.976;7.594;2022-09-11T12:10:03;10.05;;;8.77;;
20888;SDS011;10604;51.976;7.594;2022-09-11T12:12:34;10.20;;;7.72;;
20888;SDS011;10604;51.976;7.594;2022-09-11T12:15:19;9.00;;;7.97;;
20888;SDS011;10604;51.976;7.594;2022-09-11T12:17:47;8.63;;;7.45;;
20888;SDS011;10604;51.976;7.594;2022-09-11T12:22:58;8.55;;;7.18;;
20888;SDS011;10604;51.976;7.594;2022-09-11T12:28:39;8.60;;;6.15;;
20888;SDS011;10604;51.976;7.594;2022-09-11T12:30:54;6.60;;;5.63;;
20888;SDS011;10604;51.976;7.594;2022-09-11T12:36:04;6.95;;;5.93;;
20888;SDS011;10604;51.976;7.594;2022-09-11T12:38:38;7.05;;;5.65;;
20888;SDS011;10604;51.976;7.594;2022-09-11T12:41:05;8.35;;;6.45;;
20888;SDS011;10604;51.976;7.594;2022-09-11T12:48:35;6.80;;;5.93;;
20888;SDS011;10604;51.976;7.594;2022-09-11T12:51:06;7.45;;;5.90;;
20888;SDS011;10604;51.976;7.594;2022-09-11T12:53:45;6.63;;;5.53;;
20888;SDS011;10604;51.976;7.594;2022-09-11T12:56:17;6.07;;;5.47;;
20888;SDS011;10604;51.976;7.594;2022-09-11T12:58:50;8.13;;;5.78;;
20888;SDS011;10604;51.976;7.594;2022-09-11T13:06:37;8.43;;;6.80;;
20888;SDS011;10604;51.976;7.594;2022-09-11T13:09:06;8.43;;;6.90;;
20888;SDS011;10604;51.976;7.594;2022-09-11T13:11:44;8.20;;;7.40;;
20888;SDS011;10604;51.976;7.594;2022-09-11T13:17:00;9.77;;;7.75;;
20888;SDS011;10604;51.976;7.594;2022-09-11T13:19:30;9.30;;;8.40;;
20888;SDS011;10604;51.976;7.594;2022-09-11T13:21:57;8.45;;;7.30;;
20888;SDS011;10604;51.976;7.594;2022-09-11T13:24:27;9.40;;;8.20;;
20888;SDS011;10604;51.976;7.594;2022-09-11T13:27:01;11.70;;;10.17;;
20888;SDS011;10604;51.976;7.594;2022-09-11T13:29:31;11.13;;;9.20;;
20888;SDS011;10604;51.976;7.594;2022-09-11T13:32:03;10.32;;;8.82;;
20888;SDS011;10604;51.976;7.594;2022-09-11T13:34:35;10.65;;;8.65;;
20888;SDS011;10604;51.976;7.594;2022-09-11T13:37:07;9.98;;;8.45;;
20888;SDS011;10604;51.976;7.594;2022-09-11T13:39:38;9.37;;;8.33;;
20888;SDS011;10604;51.976;7.594;2022-09-11T13:42:06;9.60;;;8.20;;
20888;SDS011;10604;51.976;7.594;2022-09-11T13:44:41;9.10;;;8.18;;
20888;SDS011;10604;51.976;7.594;2022-09-11T13:47:24;9.00;;;8.00;;
20888;SDS011;10604;51.976;7.594;2022-09-11T13:49:58;9.65;;;8.65;;
20888;SDS011;10604;51.976;7.594;2022-09-11T13:52:30;8.73;;;7.82;;
20888;SDS011;10604;51.976;7.594;2022-09-11T13:54:58;9.95;;;8.07;;
20888;SDS011;10604;51.976;7.594;2022-09-11T13:57:27;8.43;;;7.50;;
20888;SDS011;10604;51.976;7.594;2022-09-11T13:59:55;10.52;;;9.35;;
20888;SDS011;10604;51.976;7.594;2022-09-11T14:07:34;11.53;;;9.03;;
20888;SDS011;10604;51.976;7.594;2022-09-11T14:10:17;10.30;;;8.55;;
20888;SDS011;10604;51.976;7.594;2022-09-11T14:15:32;8.95;;;8.07;;
20888;SDS011;10604;51.976;7.594;2022-09-11T14:18:02;8.30;;;7.60;;
20888;SDS011;10604;51.976;7.594;2022-09-11T14:20:30;9.20;;;8.05;;
20888;SDS011;10604;51.976;7.594;2022-09-11T14:22:59;8.15;;;7.35;;
20888;SDS011;10604;51.976;7.594;2022-09-11T14:25:29;11.18;;;8.10;;
20888;SDS011;10604;51.976;7.594;2022-09-11T14:27:55;8.90;;;7.38;;
20888;SDS011;10604;51.976;7.594;2022-09-11T14:30:31;8.80;;;7.40;;
20888;SDS011;10604;51.976;7.594;2022-09-11T14:35:47;11.07;;;9.80;;
20888;SDS011;10604;51.976;7.594;2022-09-11T14:38:15;10.02;;;8.70;;
20888;SDS011;10604;51.976;7.594;2022-09-11T14:40:46;9.75;;;8.75;;
20888;SDS011;10604;51.976;7.594;2022-09-11T14:43:13;11.55;;;9.80;;
20888;SDS011;10604;51.976;7.594;2022-09-11T14:45:41;12.13;;;10.93;;
20888;SDS011;10604;51.976;7.594;2022-09-11T14:48:10;13.27;;;11.87;;
20888;SDS011;10604;51.976;7.594;2022-09-11T14:50:37;11.32;;;10.00;;
20888;SDS011;10604;51.976;7.594;2022-09-11T14:53:02;11.10;;;9.95;;
20888;SDS011;10604;51.976;7.594;2022-09-11T14:55:28;10.53;;;8.70;;
20888;SDS011;10604;51.976;7.594;2022-09-11T14:57:54;10.85;;;8.65;;
20888;SDS011;10604;51.976;7.594;2022-09-11T15:00:19;9.83;;;8.47;;
20888;SDS011;10604;51.976;7.594;2022-09-11T15:02:45;9.93;;;9.00;;
20888;SDS011;10604;51.976;7.594;2022-09-11T15:05:18;9.60;;;8.60;;
20888;SDS011;10604;51.976;7.594;2022-09-11T15:07:45;11.10;;;8.57;;
20888;SDS011;10604;51.976;7.594;2022-09-11T15:10:11;9.10;;;8.20;;
20888;SDS011;10604;51.976;7.594;2022-09-11T15:12:37;8.77;;;7.50;;
20888;SDS011;10604;51.976;7.594;2022-09-11T15:15:03;10.27;;;8.30;;
20888;SDS011;10604;51.976;7.594;2022-09-11T15:17:29;8.48;;;7.65;;
20888;SDS011;10604;51.976;7.594;2022-09-11T15:19:55;9.82;;;8.20;;
20888;SDS011;10604;51.976;7.594;2022-09-11T15:22:23;8.10;;;7.30;;
20888;SDS011;10604;51.976;7.594;2022-09-11T15:24:49;8.95;;;7.15;;
20888;SDS011;10604;51.976;7.594;2022-09-11T15:27:15;9.00;;;8.07;;
20888;SDS011;10604;51.976;7.594;2022-09-11T15:29:41;10.70;;;8.60;;
20888;SDS011;10604;51.976;7.594;2022-09-11T15:32:06;9.80;;;8.90;;
20888;SDS011;10604;51.976;7.594;2022-09-11T15:34:33;9.07;;;8.13;;
20888;SDS011;10604;51.976;7.594;2022-09-11T15:36:59;9.70;;;7.90;;
20888;SDS011;10604;51.976;7.594;2022-09-11T15:39:26;9.18;;;7.97;;
20888;SDS011;10604;51.976;7.594;2022-09-11T15:41:53;10.50;;;8.73;;
20888;SDS011;10604;51.976;7.594;2022-09-11T15:44:20;10.07;;;7.70;;
20888;SDS011;10604;51.976;7.594;2022-09-11T15:46:49;8.48;;;7.47;;
20888;SDS011;10604;51.976;7.594;2022-09-11T15:49:16;8.18;;;7.22;;
20888;SDS011;10604;51.976;7.594;2022-09-11T15:51:45;7.53;;;6.72;;
20888;SDS011;10604;51.976;7.594;2022-09-11T15:54:11;7.15;;;6.22;;
20888;SDS011;10604;51.976;7.594;2022-09-11T15:56:37;7.93;;;6.38;;
20888;SDS011;10604;51.976;7.594;2022-09-11T15:59:03;8.00;;;6.47;;
20888;SDS011;10604;51.976;7.594;2022-09-11T16:01:29;7.43;;;6.22;;
20888;SDS011;10604;51.976;7.594;2022-09-11T16:03:57;7.80;;;6.25;;
20888;SDS011;10604;51.976;7.594;2022-09-11T16:06:28;9.13;;;5.77;;
20888;SDS011;10604;51.976;7.594;2022-09-11T16:08:57;6.88;;;5.47;;
20888;SDS011;10604;51.976;7.594;2022-09-11T16:11:30;6.65;;;6.00;;
20888;SDS011;10604;51.976;7.594;2022-09-11T16:13:56;6.88;;;5.05;;
20888;SDS011;10604;51.976;7.594;2022-09-11T16:16:22;7.18;;;6.40;;
20888;SDS011;10604;51.976;7.594;2022-09-11T16:18:48;7.97;;;6.50;;
20888;SDS011;10604;51.976;7.594;2022-09-11T16:21:14;7.45;;;6.68;;
20888;SDS011;10604;51.976;7.594;2022-09-11T16:23:41;6.63;;;5.80;;
20888;SDS011;10604;51.976;7.594;2022-09-11T16:26:09;6.97;;;6.28;;
20888;SDS011;10604;51.976;7.594;2022-09-11T16:28:41;9.85;;;6.82;;
20888;SDS011;10604;51.976;7.594;2022-09-11T16:31:07;6.63;;;5.80;;
20888;SDS011;10604;51.976;7.594;2022-09-11T16:33:36;6.95;;;6.15;;
20888;SDS011;10604;51.976;7.594;2022-09-11T16:36:08;6.35;;;5.63;;
20888;SDS011;10604;51.976;7.594;2022-09-11T16:38:36;7.93;;;6.97;;
20888;SDS011;10604;51.976;7.594;2022-09-11T16:41:04;7.10;;;6.40;;
20888;SDS011;10604;51.976;7.594;2022-09-11T16:43:32;6.18;;;5.60;;
20888;SDS011;10604;51.976;7.594;2022-09-11T16:45:59;6.53;;;5.40;;
20888;SDS011;10604;51.976;7.594;2022-09-11T16:48:24;8.53;;;5.73;;
20888;SDS011;10604;51.976;7.594;2022-09-11T16:50:53;6.97;;;6.28;;
20888;SDS011;10604;51.976;7.594;2022-09-11T16:53:20;6.10;;;5.50;;
20888;SDS011;10604;51.976;7.594;2022-09-11T16:55:50;7.20;;;6.20;;
20888;SDS011;10604;51.976;7.594;2022-09-11T16:58:17;7.70;;;6.80;;
20888;SDS011;10604;51.976;7.594;2022-09-11T17:00:43;6.78;;;6.15;;
20888;SDS011;10604;51.976;7.594;2022-09-11T17:03:09;7.03;;;6.33;;
20888;SDS011;10604;51.976;7.594;2022-09-11T17:05:34;7.30;;;6.60;;
20888;SDS011;10604;51.976;7.594;2022-09-11T17:07:59;7.80;;;6.87;;
20888;SDS011;10604;51.976;7.594;2022-09-11T17:10:25;7.03;;;6.33;;